Time;durP1;ratioP1;P1;durP2;ratioP2;P2;SDS_P1;SDS_P2;PMS_P1;PMS_P2;Temp;Humidity;BMP_temperature;BMP_pressure;BME280_temperature;BME280_humidity;BME280_pressure;Samples;Min_cycle;Max_cycle;Signal;HPM_P1;HPM_P2
2023/12/08 00:01:19;;;;;;;24.40;9.70;;;2.40;99.90;;;;;;5018235;28;20026;-67
2023/12/08 00:03:45;;;;;;;23.02;10.02;;;2.40;99.90;;;;;;5017875;28;20108;-68
2023/12/08 00:06:10;;;;;;;25.65;9.32;;;2.50;99.90;;;;;;5035210;28;20107;-68
2023/12/08 00:08:37;;;;;;;23.10;9.43;;;2.50;99.90;;;;;;5018097;28;20025;-67
2023/12/08 00:11:03;;;;;;;18.90;9.05;;;2.60;99.90;;;;;;5018152;28;20093;-67
2023/12/08 00:13:29;;;;;;;23.88;10.27;;;2.70;99.90;;;;;;5018273;28;20030;-67
2023/12/08 00:15:54;;;;;;;20.25;9.80;;;2.70;99.90;;;;;;5034924;28;20041;-67
2023/12/08 00:18:21;;;;;;;17.90;9.07;;;2.70;99.90;;;;;;5018351;28;20033;-67
2023/12/08 00:20:47;;;;;;;23.38;9.23;;;2.60;99.90;;;;;;5018333;28;20045;-67
2023/12/08 00:23:12;;;;;;;26.67;8.98;;;2.60;99.90;;;;;;5018044;28;20025;-67
2023/12/08 00:25:38;;;;;;;19.13;8.20;;;2.60;99.90;;;;;;5018854;28;20113;-67
2023/12/08 00:28:04;;;;;;;17.98;8.40;;;2.60;99.90;;;;;;5019150;28;20021;-67
2023/12/08 00:30:29;;;;;;;20.90;8.98;;;2.70;99.90;;;;;;5018717;28;20056;-67
2023/12/08 00:32:56;;;;;;;18.77;7.85;;;2.70;99.90;;;;;;5018712;28;20093;-68
2023/12/08 00:35:22;;;;;;;19.30;8.63;;;2.60;99.90;;;;;;5018675;28;20025;-67
2023/12/08 00:37:48;;;;;;;16.02;7.88;;;2.60;99.90;;;;;;5018932;28;20032;-67
2023/12/08 00:40:14;;;;;;;18.35;8.20;;;2.60;99.90;;;;;;5018333;28;20038;-67
2023/12/08 00:42:40;;;;;;;17.25;7.63;;;2.70;99.90;;;;;;5018572;28;20022;-67
2023/12/08 00:45:06;;;;;;;18.25;8.32;;;2.50;99.90;;;;;;5017860;28;20117;-67
2023/12/08 00:47:31;;;;;;;19.25;8.57;;;2.50;99.90;;;;;;5018548;28;20072;-67
2023/12/08 00:49:57;;;;;;;18.13;8.35;;;2.40;99.90;;;;;;5017956;28;20068;-67
2023/12/08 00:52:23;;;;;;;17.70;8.27;;;2.40;99.90;;;;;;5018440;28;20044;-67
2023/12/08 00:54:49;;;;;;;17.40;8.45;;;2.50;99.90;;;;;;5017387;28;20068;-67
2023/12/08 00:57:15;;;;;;;20.08;8.23;;;2.40;99.90;;;;;;5018088;28;20041;-67
2023/12/08 00:59:40;;;;;;;20.42;8.25;;;2.40;99.90;;;;;;5018269;28;20055;-67
2023/12/08 01:02:06;;;;;;;20.35;8.70;;;2.30;99.90;;;;;;5016948;28;20026;-67
2023/12/08 01:04:31;;;;;;;17.73;8.30;;;2.40;99.90;;;;;;5018131;28;20144;-67
2023/12/08 01:06:57;;;;;;;19.75;8.52;;;2.50;99.90;;;;;;5018177;28;20045;-67
2023/12/08 01:09:22;;;;;;;14.88;7.85;;;2.40;99.90;;;;;;5017743;28;20101;-67
2023/12/08 01:11:48;;;;;;;20.48;8.70;;;2.20;99.90;;;;;;5017102;28;20032;-67
2023/12/08 01:14:14;;;;;;;18.73;8.52;;;2.20;99.90;;;;;;5016956;28;20026;-67
2023/12/08 01:16:43;;;;;;;23.13;8.85;;;2.30;99.90;;;;;;5017150;28;20084;-67
2023/12/08 01:19:10;;;;;;;22.83;9.48;;;2.50;99.90;;;;;;5017994;28;20026;-67
2023/12/08 01:21:36;;;;;;;19.23;8.50;;;2.40;99.90;;;;;;5017926;28;20076;-67
2023/12/08 01:24:02;;;;;;;17.83;8.07;;;2.40;99.90;;;;;;5017952;28;20018;-68
2023/12/08 01:26:29;;;;;;;18.40;8.57;;;2.50;99.90;;;;;;5016855;28;20022;-67
2023/12/08 01:28:55;;;;;;;18.65;8.63;;;2.80;99.90;;;;;;5016738;28;20282;-67
2023/12/08 01:31:29;;;;;;;15.00;7.65;;;2.80;99.90;;;;;;5016878;28;20026;-67
2023/12/08 01:33:57;;;;;;;19.38;8.65;;;3.00;99.90;;;;;;5017866;28;20091;-67
2023/12/08 01:36:23;;;;;;;17.40;8.52;;;3.00;99.90;;;;;;5016773;28;20030;-67
2023/12/08 01:38:48;;;;;;;19.10;9.10;;;3.10;99.90;;;;;;5017408;28;20022;-67
2023/12/08 01:41:17;;;;;;;23.20;10.05;;;3.00;99.90;;;;;;5017343;28;20026;-67
2023/12/08 01:43:43;;;;;;;22.08;9.25;;;3.00;99.90;;;;;;5033603;28;20049;-67
2023/12/08 01:46:18;;;;;;;23.80;9.73;;;3.00;99.90;;;;;;5016624;28;20026;-67
2023/12/08 01:48:45;;;;;;;21.05;9.05;;;3.10;99.90;;;;;;5017594;28;20057;-67
2023/12/08 01:51:12;;;;;;;23.52;8.80;;;3.10;99.90;;;;;;5016114;28;20026;-67
2023/12/08 01:53:39;;;;;;;19.38;9.05;;;3.10;99.90;;;;;;5016248;28;20026;-68
2023/12/08 01:56:07;;;;;;;22.08;9.85;;;3.20;99.90;;;;;;5017184;28;20029;-67
2023/12/08 01:58:32;;;;;;;24.65;9.85;;;3.20;99.90;;;;;;5016851;28;20026;-67
2023/12/08 02:00:58;;;;;;;20.55;9.05;;;3.10;99.90;;;;;;5016450;28;20026;-68
2023/12/08 02:03:26;;;;;;;22.73;9.65;;;3.00;99.90;;;;;;5032983;28;20052;-67
2023/12/08 02:05:52;;;;;;;21.80;9.27;;;3.00;99.90;;;;;;5016372;28;20022;-67
2023/12/08 02:08:18;;;;;;;21.05;9.50;;;2.90;99.90;;;;;;5016205;28;20086;-67
2023/12/08 02:10:44;;;;;;;25.70;10.38;;;2.90;99.90;;;;;;5016194;28;20030;-67
2023/12/08 02:13:16;;;;;;;23.45;10.18;;;2.70;99.90;;;;;;5016829;28;20021;-68
2023/12/08 02:15:42;;;;;;;;;;;2.60;99.90;;;;;;5016565;28;20097;-67
2023/12/08 02:18:09;;;;;;;22.55;9.43;;;2.50;99.90;;;;;;5016279;28;19905;-67
2023/12/08 02:20:35;;;;;;;22.90;10.55;;;2.40;99.90;;;;;;5016177;28;20026;-67
2023/12/08 02:23:05;;;;;;;23.00;9.20;;;2.20;99.90;;;;;;5017164;28;20084;-67
2023/12/08 02:25:30;;;;;;;26.15;10.98;;;2.10;99.90;;;;;;5016661;28;20068;-67
2023/12/08 02:27:56;;;;;;;24.80;10.38;;;2.10;99.90;;;;;;5017054;28;20022;-67
2023/12/08 02:30:22;;;;;;;22.60;9.65;;;2.20;99.90;;;;;;5032468;28;20029;-67
2023/12/08 02:33:06;;;;;;;26.30;10.73;;;2.20;99.90;;;;;;5016773;28;20037;-67
2023/12/08 02:35:35;;;;;;;23.75;10.57;;;2.20;99.90;;;;;;5015897;28;20025;-67
2023/12/08 02:38:02;;;;;;;23.95;9.82;;;2.30;99.90;;;;;;5016931;28;20104;-67
2023/12/08 02:40:28;;;;;;;27.52;10.55;;;2.50;99.90;;;;;;5015569;28;20030;-67
2023/12/08 02:42:54;;;;;;;24.30;9.30;;;2.60;99.90;;;;;;5016673;28;20041;-67
2023/12/08 02:45:19;;;;;;;28.50;10.82;;;2.60;99.90;;;;;;5032291;28;20021;-67
2023/12/08 02:47:45;;;;;;;20.52;8.80;;;2.60;99.90;;;;;;5017093;28;20061;-67
2023/12/08 02:50:11;;;;;;;23.95;10.85;;;2.70;99.90;;;;;;5016550;28;20097;-68
2023/12/08 02:52:36;;;;;;;21.77;9.82;;;2.80;99.90;;;;;;5016718;28;20026;-67
2023/12/08 02:55:02;;;;;;;22.48;9.63;;;2.80;99.90;;;;;;5015703;28;20129;-67
2023/12/08 02:57:27;;;;;;;24.90;10.45;;;2.70;99.90;;;;;;5016681;28;20034;-67
2023/12/08 02:59:53;;;;;;;27.63;10.55;;;2.50;99.90;;;;;;5015588;28;20140;-67
2023/12/08 03:02:18;;;;;;;29.20;11.43;;;2.60;99.90;;;;;;5032306;28;20029;-67
2023/12/08 03:04:44;;;;;;;29.15;9.98;;;2.60;99.90;;;;;;5015549;28;20022;-67
2023/12/08 03:07:09;;;;;;;25.98;10.50;;;2.70;99.90;;;;;;5016599;28;20037;-67
2023/12/08 03:09:35;;;;;;;25.02;10.57;;;2.70;99.90;;;;;;5032162;28;20041;-67
2023/12/08 03:12:00;;;;;;;22.98;10.13;;;2.60;99.90;;;;;;5035002;28;20048;-67
2023/12/08 03:14:26;;;;;;;27.23;10.93;;;2.50;99.90;;;;;;5020247;28;20057;-67
2023/12/08 03:16:51;;;;;;;25.83;10.30;;;2.50;99.90;;;;;;5020135;28;20072;-68
2023/12/08 03:19:17;;;;;;;24.90;9.98;;;2.50;99.90;;;;;;5035413;28;20064;-68
2023/12/08 03:21:42;;;;;;;23.95;10.40;;;2.70;99.90;;;;;;5019148;28;20026;-67
2023/12/08 03:24:08;;;;;;;21.92;9.35;;;2.70;99.90;;;;;;5018817;28;20028;-67
2023/12/08 03:26:33;;;;;;;22.60;9.65;;;2.60;99.90;;;;;;5018760;28;20057;-67
2023/12/08 03:28:59;;;;;;;27.02;10.48;;;2.70;99.90;;;;;;5019693;28;20029;-67
2023/12/08 03:31:27;;;;;;;28.70;11.70;;;2.60;99.90;;;;;;5019098;28;20034;-67
2023/12/08 03:33:52;;;;;;;23.25;10.00;;;2.60;99.90;;;;;;5019587;28;20030;-67
2023/12/08 03:36:18;;;;;;;22.90;10.30;;;2.60;99.90;;;;;;5035071;28;20026;-68
2023/12/08 03:38:44;;;;;;;23.17;9.35;;;2.50;99.90;;;;;;5035455;28;20095;-68
2023/12/08 03:41:12;;;;;;;28.52;10.43;;;2.40;99.90;;;;;;5018267;28;20033;-68
2023/12/08 03:43:38;;;;;;;21.67;10.27;;;2.50;99.90;;;;;;5035534;28;20022;-67
2023/12/08 03:46:05;;;;;;;25.05;10.90;;;2.60;99.90;;;;;;5019542;28;20022;-67
2023/12/08 03:48:30;;;;;;;26.48;11.02;;;2.60;99.90;;;;;;5018376;28;20049;-67
2023/12/08 03:50:56;;;;;;;28.52;10.82;;;2.60;99.90;;;;;;5019328;28;20034;-67
2023/12/08 03:53:22;;;;;;;25.85;10.90;;;2.60;99.90;;;;;;5019185;28;20033;-67
2023/12/08 03:55:47;;;;;;;27.88;11.00;;;2.60;99.90;;;;;;5018320;28;20028;-67
2023/12/08 03:58:13;;;;;;;25.40;11.32;;;2.60;99.90;;;;;;5019119;28;20054;-67
2023/12/08 04:00:38;;;;;;;23.50;10.27;;;2.60;99.90;;;;;;5018180;28;20026;-67
2023/12/08 04:03:04;;;;;;;27.55;10.02;;;2.50;99.90;;;;;;5018117;28;20026;-67
2023/12/08 04:05:29;;;;;;;27.42;11.20;;;2.50;99.90;;;;;;5034623;28;20018;-67
2023/12/08 04:07:55;;;;;;;26.20;10.82;;;2.50;99.90;;;;;;5034560;28;20026;-67
2023/12/08 04:10:20;;;;;;;30.33;11.13;;;2.50;99.90;;;;;;5018983;28;20029;-67
2023/12/08 04:12:46;;;;;;;29.77;11.23;;;2.60;99.90;;;;;;5018970;28;20093;-67
2023/12/08 04:15:11;;;;;;;27.90;11.27;;;2.50;99.90;;;;;;5034368;28;20033;-67
2023/12/08 04:17:37;;;;;;;26.35;11.18;;;2.70;99.90;;;;;;5034394;28;20029;-67
2023/12/08 04:20:03;;;;;;;24.60;9.82;;;2.70;99.90;;;;;;5034345;28;20053;-67
2023/12/08 04:22:28;;;;;;;23.70;10.15;;;2.60;99.90;;;;;;5017061;28;20029;-67
2023/12/08 04:24:54;;;;;;;30.08;10.57;;;2.60;99.90;;;;;;5018047;28;20049;-67
2023/12/08 04:27:19;;;;;;;25.98;11.52;;;2.60;99.90;;;;;;5017828;28;20022;-67
2023/12/08 04:29:45;;;;;;;30.95;11.55;;;2.60;99.90;;;;;;5034396;28;20040;-67
2023/12/08 04:32:10;;;;;;;28.70;12.32;;;2.60;99.90;;;;;;5034118;28;20018;-67
2023/12/08 04:34:36;;;;;;;30.25;12.45;;;2.60;99.90;;;;;;5034064;28;20025;-67
2023/12/08 04:37:02;;;;;;;27.98;10.65;;;2.60;99.90;;;;;;5034680;28;20029;-67
2023/12/08 04:39:27;;;;;;;25.60;10.45;;;2.60;99.90;;;;;;5018576;28;20026;-67
2023/12/08 04:41:53;;;;;;;28.98;11.20;;;2.70;99.90;;;;;;5017518;28;20037;-67
2023/12/08 04:44:18;;;;;;;23.95;11.10;;;2.70;99.90;;;;;;5034656;28;20018;-67
2023/12/08 04:46:44;;;;;;;26.05;11.32;;;2.60;99.90;;;;;;5017643;28;20094;-67
2023/12/08 04:49:09;;;;;;;23.65;10.70;;;2.60;99.90;;;;;;5017747;28;20113;-67
2023/12/08 04:51:35;;;;;;;27.92;11.85;;;2.70;99.90;;;;;;5017396;28;20100;-67
2023/12/08 04:54:01;;;;;;;29.02;11.10;;;2.70;99.90;;;;;;5017316;28;20022;-67
2023/12/08 04:56:27;;;;;;;27.02;11.43;;;2.60;99.90;;;;;;5033537;28;20117;-67
2023/12/08 04:58:52;;;;;;;28.67;11.98;;;2.50;99.90;;;;;;5018233;28;20064;-67
2023/12/08 05:01:18;;;;;;;25.15;11.38;;;2.50;99.90;;;;;;5033657;28;20029;-67
2023/12/08 05:03:43;;;;;;;25.90;10.57;;;2.40;99.90;;;;;;5033840;28;20042;-67
2023/12/08 05:06:09;;;;;;;26.70;11.75;;;2.40;99.90;;;;;;5033785;28;20022;-67
2023/12/08 05:08:35;;;;;;;27.25;12.25;;;2.50;99.90;;;;;;5017891;28;20026;-67
2023/12/08 05:11:01;;;;;;;24.40;11.48;;;2.60;99.90;;;;;;5017854;28;20021;-67
2023/12/08 05:13:27;;;;;;;33.05;12.07;;;2.60;99.90;;;;;;5034149;28;20113;-67
2023/12/08 05:15:52;;;;;;;28.52;12.18;;;2.60;99.90;;;;;;5033328;28;20089;-67
2023/12/08 05:18:18;;;;;;;27.88;11.13;;;2.50;99.90;;;;;;5033174;28;20112;-67
2023/12/08 05:20:43;;;;;;;28.40;12.10;;;2.50;99.90;;;;;;5033137;28;20022;-67
2023/12/08 05:23:09;;;;;;;32.38;12.10;;;2.60;99.90;;;;;;5017651;28;20054;-67
2023/12/08 05:25:34;;;;;;;29.48;11.52;;;2.50;99.90;;;;;;5033112;28;20022;-67
2023/12/08 05:28:00;;;;;;;27.40;11.68;;;2.40;99.90;;;;;;5017529;28;20101;-67
2023/12/08 05:30:27;;;;;;;26.73;11.88;;;2.30;99.90;;;;;;5016867;28;20037;-67
2023/12/08 05:32:53;;;;;;;33.35;12.85;;;2.30;99.90;;;;;;5017500;28;20026;-67
2023/12/08 05:35:19;;;;;;;31.38;11.70;;;2.40;99.90;;;;;;5016615;28;20032;-67
2023/12/08 05:37:44;;;;;;;32.75;11.85;;;2.30;99.90;;;;;;5016455;28;20049;-67
2023/12/08 05:40:11;;;;;;;31.50;11.77;;;2.30;99.90;;;;;;5032783;28;20080;-70
2023/12/08 05:42:39;;;;;;;25.67;11.10;;;2.30;99.90;;;;;;5033485;28;20030;-71
2023/12/08 05:45:06;;;;;;;30.92;12.10;;;2.20;99.90;;;;;;5017402;28;20029;-70
2023/12/08 05:47:35;;;;;;;39.83;12.57;;;2.30;99.90;;;;;;5017604;28;20021;-71
2023/12/08 05:50:01;;;;;;;35.55;12.98;;;2.40;99.90;;;;;;5016638;28;20037;-71
2023/12/08 05:52:26;;;;;;;30.20;12.05;;;2.40;99.90;;;;;;5033244;28;20102;-71
2023/12/08 05:54:52;;;;;;;28.20;11.88;;;2.20;99.90;;;;;;5017331;28;20030;-71
2023/12/08 05:57:17;;;;;;;32.38;12.27;;;2.20;99.90;;;;;;5033170;28;20025;-70
2023/12/08 05:59:43;;;;;;;24.67;10.57;;;2.20;99.90;;;;;;5032688;28;20093;-70
2023/12/08 06:02:08;;;;;;;29.88;11.98;;;2.10;99.90;;;;;;5017301;28;20026;-70
2023/12/08 06:04:34;;;;;;;32.90;12.77;;;2.00;99.90;;;;;;5016194;28;20028;-70
2023/12/08 06:07:00;;;;;;;34.10;12.15;;;2.00;99.90;;;;;;5017207;28;20041;-70
2023/12/08 06:09:25;;;;;;;30.23;13.35;;;2.10;99.90;;;;;;5016941;28;20033;-70
2023/12/08 06:11:51;;;;;;;35.05;12.85;;;2.00;99.90;;;;;;5016467;28;20026;-70
2023/12/08 06:14:17;;;;;;;33.35;12.57;;;2.00;99.90;;;;;;5032560;28;20029;-70
2023/12/08 06:16:43;;;;;;;28.45;12.43;;;2.10;99.90;;;;;;5016956;28;20040;-70
2023/12/08 06:19:09;;;;;;;33.85;13.02;;;1.90;99.90;;;;;;5032545;28;20061;-70
2023/12/08 06:21:34;;;;;;;33.97;12.82;;;2.00;99.90;;;;;;5032272;28;20046;-70
2023/12/08 06:24:00;;;;;;;37.67;13.35;;;2.00;99.90;;;;;;5032842;28;20029;-70
2023/12/08 06:26:26;;;;;;;31.75;11.57;;;2.20;99.90;;;;;;5015999;28;20026;-70
2023/12/08 06:28:52;;;;;;;34.70;13.90;;;2.10;99.90;;;;;;5016825;28;20022;-70
2023/12/08 06:31:18;;;;;;;31.55;11.85;;;2.20;99.90;;;;;;5015870;28;20022;-70
2023/12/08 06:33:43;;;;;;;29.95;12.60;;;2.20;99.90;;;;;;5015875;28;20030;-70
2023/12/08 06:36:10;;;;;;;30.42;11.77;;;2.40;99.90;;;;;;5032635;28;20030;-70
2023/12/08 06:38:37;;;;;;;39.63;12.85;;;2.30;99.90;;;;;;5016729;28;20080;-70
2023/12/08 06:41:03;;;;;;;29.88;11.93;;;2.40;99.90;;;;;;5016829;28;20042;-70
2023/12/08 06:43:28;;;;;;;34.08;13.43;;;2.30;99.90;;;;;;5016705;28;20024;-70
2023/12/08 06:45:54;;;;;;;34.03;12.43;;;2.10;99.90;;;;;;5017972;28;20079;-70
2023/12/08 06:48:21;;;;;;;37.88;13.60;;;1.90;99.90;;;;;;5020622;28;20029;-70
2023/12/08 06:50:47;;;;;;;39.58;14.55;;;1.90;99.90;;;;;;5020494;28;20022;-70
2023/12/08 06:53:13;;;;;;;45.50;14.50;;;2.00;99.90;;;;;;5020591;28;20022;-70
2023/12/08 06:55:38;;;;;;;37.95;15.30;;;2.00;99.90;;;;;;5036642;28;20033;-70
2023/12/08 06:58:04;;;;;;;40.47;14.68;;;2.10;99.90;;;;;;5020406;28;20041;-70
2023/12/08 07:00:29;;;;;;;43.15;13.90;;;2.00;99.90;;;;;;5020062;28;20022;-70
2023/12/08 07:02:55;;;;;;;41.55;14.95;;;2.00;99.90;;;;;;5020406;28;20030;-70
2023/12/08 07:05:21;;;;;;;41.28;14.35;;;1.90;99.90;;;;;;5036149;28;20025;-70
2023/12/08 07:07:47;;;;;;;39.45;14.55;;;1.90;99.90;;;;;;5020143;28;20152;-70
2023/12/08 07:10:14;;;;;;;34.95;15.10;;;2.10;99.90;;;;;;5020035;28;20021;-70
2023/12/08 07:12:40;;;;;;;37.15;12.80;;;2.00;99.90;;;;;;5020015;28;20025;-70
2023/12/08 07:15:06;;;;;;;39.30;13.23;;;2.20;99.90;;;;;;5036457;28;20093;-70
2023/12/08 07:17:31;;;;;;;36.10;14.32;;;2.30;99.90;;;;;;5019275;28;20026;-70
2023/12/08 07:19:57;;;;;;;34.78;13.20;;;2.20;99.90;;;;;;5019718;28;20018;-71
2023/12/08 07:22:22;;;;;;;40.17;13.73;;;2.00;99.90;;;;;;5035428;28;20030;-70
2023/12/08 07:24:48;;;;;;;36.40;13.82;;;2.10;99.90;;;;;;5035376;28;20029;-69
2023/12/08 07:27:13;;;;;;;31.88;13.00;;;2.00;99.90;;;;;;5018929;28;20018;-69
2023/12/08 07:29:39;;;;;;;29.95;12.32;;;2.10;99.90;;;;;;5019027;28;20030;-69
2023/12/08 07:32:06;;;;;;;39.85;14.55;;;2.10;99.90;;;;;;5035284;28;20037;-69
2023/12/08 07:34:31;;;;;;;31.27;12.18;;;1.90;99.90;;;;;;5020029;28;20048;-69
2023/12/08 07:36:57;;;;;;;35.42;13.75;;;1.80;99.90;;;;;;5019549;28;20030;-69
2023/12/08 07:39:22;;;;;;;30.30;12.32;;;1.70;99.90;;;;;;5019529;28;20034;-69
2023/12/08 07:41:48;;;;;;;24.05;10.40;;;1.70;99.90;;;;;;5035105;28;20057;-69
2023/12/08 07:44:14;;;;;;;33.28;13.23;;;1.90;99.90;;;;;;5035010;28;20026;-69
2023/12/08 07:46:40;;;;;;;30.95;12.88;;;1.90;99.90;;;;;;5019834;28;20032;-69
2023/12/08 07:49:06;;;;;;;26.65;11.40;;;1.80;99.90;;;;;;5019315;28;20030;-69
2023/12/08 07:51:34;;;;;;;29.40;12.25;;;1.80;99.90;;;;;;5035185;28;20026;-68
2023/12/08 07:54:03;;;;;;;34.10;13.18;;;1.90;99.90;;;;;;5019337;28;20021;-69
2023/12/08 07:56:29;;;;;;;37.67;13.48;;;1.90;99.90;;;;;;5019269;28;20032;-70
2023/12/08 07:58:54;;;;;;;31.90;12.02;;;2.00;99.90;;;;;;5018688;28;20034;-70
2023/12/08 08:01:20;;;;;;;30.67;12.32;;;1.80;99.90;;;;;;5035018;28;20032;-70
2023/12/08 08:03:45;;;;;;;33.60;13.07;;;1.80;99.90;;;;;;5034810;28;20057;-69
2023/12/08 08:06:11;;;;;;;31.88;12.05;;;1.80;99.90;;;;;;5019157;28;20105;-69
2023/12/08 08:08:37;;;;;;;34.35;13.20;;;2.00;99.90;;;;;;5018963;28;20033;-70
2023/12/08 08:11:03;;;;;;;35.53;13.23;;;1.90;99.90;;;;;;5018860;28;20030;-70
2023/12/08 08:13:28;;;;;;;30.42;12.07;;;2.00;99.90;;;;;;5034483;28;20029;-70
2023/12/08 08:15:54;;;;;;;34.20;12.60;;;2.10;99.90;;;;;;5034445;28;20103;-70
2023/12/08 08:18:19;;;;;;;35.25;12.55;;;2.20;99.90;;;;;;5034783;28;20025;-70
2023/12/08 08:20:45;;;;;;;40.63;14.05;;;2.10;99.90;;;;;;5034186;28;20018;-69
2023/12/08 08:23:10;;;;;;;44.33;14.55;;;2.20;99.90;;;;;;5034590;28;20017;-69
2023/12/08 08:25:36;;;;;;;35.53;14.70;;;2.00;99.90;;;;;;5018807;28;20030;-69
2023/12/08 08:28:02;;;;;;;35.13;13.75;;;2.10;99.90;;;;;;5018629;28;20069;-69
2023/12/08 08:30:27;;;;;;;33.38;13.27;;;2.20;99.90;;;;;;5034109;28;20049;-69
2023/12/08 08:32:53;;;;;;;35.85;13.70;;;2.20;99.90;;;;;;5034374;28;20022;-69
2023/12/08 08:35:18;;;;;;;28.98;12.25;;;2.30;99.90;;;;;;5034114;28;20021;-69
2023/12/08 08:37:44;;;;;;;34.00;13.57;;;2.40;99.90;;;;;;5018662;28;20030;-69
2023/12/08 08:40:10;;;;;;;35.67;13.95;;;2.70;99.90;;;;;;5034141;28;20048;-70
2023/12/08 08:42:39;;;;;;;30.73;13.10;;;2.80;99.90;;;;;;5018273;28;20041;-69
2023/12/08 08:45:06;;;;;;;36.95;13.98;;;2.80;99.90;;;;;;5034974;28;20026;-70
2023/12/08 08:47:32;;;;;;;37.38;14.32;;;2.80;99.90;;;;;;5018386;28;20019;-69
2023/12/08 08:49:57;;;;;;;34.58;12.82;;;2.70;99.90;;;;;;5018157;28;20096;-69
2023/12/08 08:52:23;;;;;;;30.40;12.40;;;2.70;99.90;;;;;;5018615;28;20026;-69
2023/12/08 08:54:49;;;;;;;28.75;11.90;;;2.80;99.90;;;;;;5017834;28;20022;-69
2023/12/08 08:57:14;;;;;;;35.42;13.35;;;2.40;99.90;;;;;;5018225;28;20083;-70
2023/12/08 08:59:40;;;;;;;42.22;17.25;;;2.40;99.90;;;;;;5018048;28;20021;-69
2023/12/08 09:02:05;;;;;;;33.92;13.88;;;2.40;99.90;;;;;;5017908;28;20026;-69
2023/12/08 09:04:31;;;;;;;31.50;11.95;;;2.50;99.90;;;;;;5034278;28;20014;-69
2023/12/08 09:06:56;;;;;;;37.20;14.93;;;2.40;99.90;;;;;;5033403;28;20030;-69
2023/12/08 09:09:22;;;;;;;37.60;13.85;;;2.40;99.90;;;;;;5017512;28;20033;-69
2023/12/08 09:11:48;;;;;;;40.20;14.48;;;2.30;99.90;;;;;;5017923;28;20018;-69
2023/12/08 09:14:14;;;;;;;34.15;13.65;;;2.40;99.90;;;;;;5017264;28;20121;-69
2023/12/08 09:16:40;;;;;;;35.00;14.07;;;2.50;99.90;;;;;;5033313;28;20030;-69
2023/12/08 09:19:05;;;;;;;43.55;15.02;;;2.50;99.90;;;;;;5017625;28;20034;-69
2023/12/08 09:21:31;;;;;;;38.10;14.65;;;2.60;99.90;;;;;;5018155;28;20022;-69
2023/12/08 09:23:57;;;;;;;44.40;15.02;;;2.60;99.90;;;;;;5016790;28;20021;-70
2023/12/08 09:26:22;;;;;;;44.72;15.63;;;2.50;99.90;;;;;;5017427;28;20033;-70
2023/12/08 09:28:49;;;;;;;39.03;14.82;;;2.70;99.90;;;;;;5017583;28;20029;-69
2023/12/08 09:31:15;;;;;;;42.65;15.75;;;2.80;99.90;;;;;;5017606;28;20069;-70
2023/12/08 09:33:42;;;;;;;40.10;13.75;;;2.60;99.90;;;;;;5032993;28;20026;-71
2023/12/08 09:36:08;;;;;;;40.03;14.63;;;2.50;99.90;;;;;;5017649;28;20022;-71
2023/12/08 09:38:34;;;;;;;40.63;13.82;;;2.70;99.90;;;;;;5033057;28;20032;-69
2023/12/08 09:41:01;;;;;;;32.67;12.85;;;2.50;99.90;;;;;;5033222;28;20048;-69
2023/12/08 09:43:34;;;;;;;44.17;15.10;;;2.60;99.90;;;;;;5017435;28;20049;-69
2023/12/08 09:46:01;;;;;;;42.38;15.95;;;2.50;99.90;;;;;;5016473;28;20022;-69
2023/12/08 09:48:30;;;;;;;50.45;16.73;;;2.30;99.90;;;;;;5032998;28;20089;-71
2023/12/08 09:50:57;;;;;;;43.88;15.82;;;2.40;99.90;;;;;;5032787;28;20029;-69
2023/12/08 09:53:26;;;;;;;36.45;14.55;;;2.40;99.90;;;;;;5033130;28;20064;-70
2023/12/08 09:55:53;;;;;;;46.95;16.35;;;2.60;99.90;;;;;;5017264;28;20037;-71
2023/12/08 09:58:20;;;;;;;39.88;14.98;;;2.60;99.90;;;;;;5033056;28;20026;-72
2023/12/08 10:00:48;;;;;;;43.17;15.00;;;2.50;99.90;;;;;;5032570;28;20026;-71
2023/12/08 10:03:14;;;;;;;44.58;14.52;;;2.60;99.90;;;;;;5033476;28;20107;-71
2023/12/08 10:05:40;;;;;;;46.72;16.17;;;2.80;99.90;;;;;;5033151;28;20054;-71
2023/12/08 10:08:08;;;;;;;48.20;16.88;;;2.70;99.90;;;;;;5032807;28;20072;-71
2023/12/08 10:10:34;;;;;;;45.83;16.02;;;2.70;99.90;;;;;;5016039;28;20030;-69
2023/12/08 10:13:00;;;;;;;42.45;15.38;;;2.70;99.90;;;;;;5016351;28;20117;-69
2023/12/08 10:15:26;;;;;;;46.10;16.75;;;2.50;99.90;;;;;;5016976;28;20030;-69
2023/12/08 10:17:52;;;;;;;47.42;15.95;;;2.40;99.90;;;;;;5017211;28;20032;-69
2023/12/08 10:20:19;;;;;;;47.10;16.08;;;2.50;99.90;;;;;;5017332;28;20105;-69
2023/12/08 10:22:56;;;;;;;34.92;13.32;;;2.70;99.90;;;;;;5036695;28;20036;-69
2023/12/08 10:25:24;;;;;;;44.92;16.45;;;2.80;99.90;;;;;;5021265;28;20018;-69
2023/12/08 10:27:51;;;;;;;45.95;16.17;;;2.70;99.90;;;;;;5019965;28;20014;-69
2023/12/08 10:30:18;;;;;;;42.53;15.70;;;2.60;99.90;;;;;;5020146;28;20026;-69
2023/12/08 10:32:45;;;;;;;41.53;15.05;;;2.50;99.90;;;;;;5020951;28;20030;-69
2023/12/08 10:35:14;;;;;;;36.15;13.60;;;2.60;99.90;;;;;;5036333;28;20026;-69
2023/12/08 10:37:40;;;;;;;38.33;14.40;;;2.70;99.90;;;;;;5021205;28;20026;-70
2023/12/08 10:40:08;;;;;;;36.47;13.63;;;2.90;99.90;;;;;;5020734;28;20037;-70
2023/12/08 10:42:33;;;;;;;33.35;13.30;;;2.90;99.90;;;;;;5020623;28;20036;-69
2023/12/08 10:45:00;;;;;;;37.70;15.40;;;2.90;99.90;;;;;;5020584;28;20018;-70
2023/12/08 10:47:26;;;;;;;44.45;14.35;;;2.90;99.90;;;;;;5036627;28;20049;-69
2023/12/08 10:49:54;;;;;;;45.78;16.33;;;2.80;99.90;;;;;;5020576;28;20101;-69
2023/12/08 10:52:22;;;;;;;41.83;15.38;;;2.90;99.90;;;;;;5036859;28;20026;-69
2023/12/08 10:54:49;;;;;;;35.47;13.95;;;3.00;99.90;;;;;;5020412;28;20033;-69
2023/12/08 10:57:15;;;;;;;33.88;13.85;;;2.90;99.90;;;;;;5020358;28;20022;-69
2023/12/08 10:59:43;;;;;;;40.65;16.17;;;2.90;99.90;;;;;;5020330;28;20033;-69
2023/12/08 11:02:18;;;;;;;31.33;13.18;;;2.90;99.90;;;;;;5036631;28;20026;-69
2023/12/08 11:04:49;;;;;;;40.47;14.68;;;3.10;99.90;;;;;;5020343;28;20202;-70
2023/12/08 11:07:19;;;;;;;36.80;14.52;;;2.90;99.90;;;;;;5019414;28;20025;-69
2023/12/08 11:09:45;;;;;;;39.75;15.20;;;2.80;99.90;;;;;;5019221;28;20022;-70
2023/12/08 11:12:13;;;;;;;38.35;15.60;;;2.90;99.90;;;;;;5019377;28;20033;-69
2023/12/08 11:14:42;;;;;;;41.50;15.88;;;2.80;99.90;;;;;;5019974;28;20022;-69
2023/12/08 11:17:22;;;;;;;45.15;15.35;;;2.70;99.90;;;;;;5019197;28;20036;-69
2023/12/08 11:19:49;;;;;;;49.20;15.70;;;2.70;99.90;;;;;;5019961;28;20101;-71
2023/12/08 11:22:15;;;;;;;48.78;16.42;;;2.50;99.90;;;;;;5019809;28;20025;-69
2023/12/08 11:24:42;;;;;;;43.38;16.05;;;2.70;99.90;;;;;;5020168;28;20030;-71
2023/12/08 11:27:17;;;;;;;55.25;18.65;;;2.60;99.90;;;;;;5035390;28;20026;-69
2023/12/08 11:29:52;;;;;;;50.42;16.40;;;2.70;99.90;;;;;;5019186;28;20108;-69
2023/12/08 11:32:32;;;;;;;60.47;18.25;;;2.70;99.90;;;;;;5035437;28;20061;-70
2023/12/08 11:35:01;;;;;;;56.42;18.23;;;2.80;99.90;;;;;;5035310;28;20061;-70
2023/12/08 11:37:29;;;;;;;51.63;18.75;;;2.80;99.90;;;;;;5035539;28;20056;-69
2023/12/08 11:40:10;;;;;;;46.50;17.23;;;2.80;99.90;;;;;;5043101;22;20117;-64
2023/12/08 11:42:37;;;;;;;51.33;19.27;;;2.80;99.90;;;;;;5035232;28;20037;-64
2023/12/08 11:45:05;;;;;;;52.50;18.65;;;3.00;99.90;;;;;;5018753;28;20100;-64
2023/12/08 11:47:31;;;;;;;43.35;15.52;;;3.10;99.90;;;;;;5034852;28;20029;-64
2023/12/08 11:49:56;;;;;;;53.15;16.95;;;3.20;99.90;;;;;;5035718;28;20026;-64
2023/12/08 11:52:33;;;;;;;51.22;17.63;;;3.30;99.90;;;;;;5018522;28;20089;-64
2023/12/08 11:55:02;;;;;;;50.05;16.60;;;3.20;99.90;;;;;;5019822;28;20039;-64
2023/12/08 11:57:28;;;;;;;51.72;17.75;;;2.90;99.90;;;;;;5035170;28;20034;-64
2023/12/08 11:59:55;;;;;;;48.85;18.05;;;2.70;99.90;;;;;;5034864;28;20032;-64
2023/12/08 12:02:20;;;;;;;53.20;18.08;;;2.60;99.90;;;;;;5035283;28;20025;-64
2023/12/08 12:04:50;;;;;;;57.00;18.00;;;2.60;99.90;;;;;;5034902;28;20049;-64
2023/12/08 12:07:22;;;;;;;61.63;20.15;;;2.60;99.90;;;;;;5034866;28;20026;-64
2023/12/08 12:09:50;;;;;;;52.63;16.10;;;2.60;99.90;;;;;;5019196;28;20018;-63
2023/12/08 12:12:24;;;;;;;56.58;18.65;;;2.40;99.90;;;;;;5019154;28;20133;-63
2023/12/08 12:14:56;;;;;;;54.58;18.85;;;2.50;99.90;;;;;;5019238;28;20030;-63
2023/12/08 12:17:25;;;;;;;50.40;18.30;;;2.50;99.90;;;;;;5034695;28;20022;-64
2023/12/08 12:19:52;;;;;;;55.30;18.83;;;2.60;99.90;;;;;;5034528;28;20021;-64
2023/12/08 12:22:18;;;;;;;63.38;19.50;;;2.60;99.90;;;;;;5034845;28;20054;-64
2023/12/08 12:24:44;;;;;;;52.78;16.38;;;2.50;99.90;;;;;;5018850;28;20028;-63
2023/12/08 12:27:10;;;;;;;54.75;18.75;;;2.70;99.90;;;;;;5035187;28;20050;-64
2023/12/08 12:29:35;;;;;;;63.00;18.58;;;2.90;99.90;;;;;;5018934;28;20045;-64
2023/12/08 12:32:03;;;;;;;51.80;17.23;;;3.00;99.90;;;;;;5017905;28;20026;-64
2023/12/08 12:34:29;;;;;;;46.22;14.73;;;2.90;99.90;;;;;;5017819;28;20022;-63